Time;durP1;ratioP1;P1;durP2;ratioP2;P2;SDS_P1;SDS_P2;PMS_P1;PMS_P2;Temp;Humidity;BMP_temperature;BMP_pressure;BME280_temperature;BME280_humidity;BME280_pressure;Samples;Min_cycle;Max_cycle;Signal;HPM_P1;HPM_P2
2024/01/24 00:02:10;;;;;;;13.80;6.13;;;;;;;;;;5052389;28;20025;-66
2024/01/24 00:04:35;;;;;;;11.77;5.37;;;;;;;;;;5051190;28;20048;-66
2024/01/24 00:07:00;;;;;;;12.30;5.10;;;;;;;;;;5052707;28;20095;-67
2024/01/24 00:09:26;;;;;;;15.83;4.83;;;;;;;;;;5050914;28;20486;-67
2024/01/24 00:11:51;;;;;;;11.87;4.53;;;;;;;;;;5052723;28;20545;-67
2024/01/24 00:14:16;;;;;;;12.40;3.90;;;;;;;;;;5051438;28;20448;-66
2024/01/24 00:16:41;;;;;;;9.18;3.70;;;;;;;;;;5051903;28;20017;-66
2024/01/24 00:19:07;;;;;;;7.57;3.80;;;;;;;;;;5051035;28;20029;-66
2024/01/24 00:21:32;;;;;;;7.00;4.33;;;;;;;;;;5053059;28;20444;-66
2024/01/24 00:23:57;;;;;;;6.20;4.50;;;;;;;;;;5050831;28;20032;-66
2024/01/24 00:26:22;;;;;;;5.25;3.15;;;;;;;;;;5052835;28;20043;-66
2024/01/24 00:28:47;;;;;;;8.63;4.67;;;;;;;;;;5051081;28;20151;-66
2024/01/24 00:31:13;;;;;;;6.63;3.73;;;;;;;;;;5052677;28;20069;-67
2024/01/24 00:33:38;;;;;;;10.73;4.67;;;;;;;;;;5052573;28;20020;-67
2024/01/24 00:36:04;;;;;;;8.48;5.43;;;;;;;;;;5051100;28;20467;-66
2024/01/24 00:38:29;;;;;;;18.55;5.63;;;;;;;;;;5052303;28;20024;-67
2024/01/24 00:40:54;;;;;;;13.70;5.03;;;;;;;;;;5051038;28;20449;-66
2024/01/24 00:43:19;;;;;;;9.00;4.70;;;;;;;;;;5052651;28;20989;-66
2024/01/24 00:45:44;;;;;;;9.07;4.88;;;;;;;;;;5050681;28;20033;-67
2024/01/24 00:48:10;;;;;;;5.77;3.20;;;;;;;;;;5052188;28;20017;-66
2024/01/24 00:50:35;;;;;;;5.93;3.30;;;;;;;;;;5050785;28;20490;-66
2024/01/24 00:53:03;;;;;;;8.50;4.40;;;;;;;;;;5052546;28;20025;-66
2024/01/24 00:55:30;;;;;;;4.15;2.80;;;;;;;;;;5050736;28;20467;-66
2024/01/24 00:57:55;;;;;;;8.50;4.25;;;;;;;;;;5052332;28;20017;-66
2024/01/24 01:00:20;;;;;;;11.00;5.33;;;;;;;;;;5050926;28;20048;-65
2024/01/24 01:02:45;;;;;;;6.53;3.35;;;;;;;;;;5051788;28;20493;-66
2024/01/24 01:05:10;;;;;;;7.53;4.30;;;;;;;;;;5050639;28;20029;-66
2024/01/24 01:07:36;;;;;;;7.73;3.37;;;;;;;;;;5051906;28;20400;-65
2024/01/24 01:10:01;;;;;;;6.37;2.83;;;;;;;;;;5050475;28;20819;-65
2024/01/24 01:12:26;;;;;;;5.83;2.70;;;;;;;;;;5052167;28;20446;-65
2024/01/24 01:14:51;;;;;;;3.33;2.00;;;;;;;;;;5050580;28;20040;-65
2024/01/24 01:17:16;;;;;;;4.47;2.47;;;;;;;;;;5051012;28;20135;-66
2024/01/24 01:19:41;;;;;;;6.30;3.00;;;;;;;;;;5050238;28;20029;-65
2024/01/24 01:22:07;;;;;;;3.40;2.33;;;;;;;;;;5051934;28;20491;-65
2024/01/24 01:24:32;;;;;;;4.15;2.17;;;;;;;;;;5050278;28;20488;-65
2024/01/24 01:26:57;;;;;;;7.30;2.20;;;;;;;;;;5051799;28;20361;-65
2024/01/24 01:29:22;;;;;;;4.50;2.17;;;;;;;;;;5050410;28;20447;-65
2024/01/24 01:31:47;;;;;;;2.27;2.07;;;;;;;;;;5051071;28;20017;-65
2024/01/24 01:34:13;;;;;;;3.00;2.30;;;;;;;;;;5050179;28;20056;-65
2024/01/24 01:36:38;;;;;;;2.20;2.00;;;;;;;;;;5051359;28;21021;-65
2024/01/24 01:39:04;;;;;;;4.77;2.00;;;;;;;;;;5049796;28;20474;-65
2024/01/24 01:41:29;;;;;;;13.77;3.42;;;;;;;;;;5051784;28;20423;-65
2024/01/24 01:43:54;;;;;;;3.47;2.35;;;;;;;;;;5050076;28;20032;-66
2024/01/24 01:46:21;;;;;;;3.23;2.60;;;;;;;;;;5051141;28;20464;-66
2024/01/24 01:48:48;;;;;;;4.35;2.00;;;;;;;;;;5049735;28;20822;-66
2024/01/24 01:51:13;;;;;;;3.08;2.55;;;;;;;;;;5051604;28;20078;-66
2024/01/24 01:53:38;;;;;;;6.53;2.30;;;;;;;;;;5049260;28;20400;-65
2024/01/24 01:56:07;;;;;;;2.50;2.22;;;;;;;;;;5051291;28;20472;-65
2024/01/24 01:58:33;;;;;;;6.32;3.03;;;;;;;;;;5050131;28;20384;-66
2024/01/24 02:00:58;;;;;;;4.25;2.17;;;;;;;;;;5050599;28;20020;-65
2024/01/24 02:03:23;;;;;;;4.60;2.13;;;;;;;;;;5049545;28;20100;-66
2024/01/24 02:05:48;;;;;;;2.37;2.17;;;;;;;;;;5050837;28;20836;-66
2024/01/24 02:08:13;;;;;;;3.27;2.53;;;;;;;;;;5050663;28;20415;-65
2024/01/24 02:10:39;;;;;;;2.57;2.37;;;;;;;;;;5049497;28;20459;-66
2024/01/24 02:13:05;;;;;;;2.53;2.35;;;;;;;;;;5050943;28;20419;-66
2024/01/24 02:15:31;;;;;;;3.85;2.45;;;;;;;;;;5049343;28;20626;-67
2024/01/24 02:17:56;;;;;;;2.80;2.60;;;;;;;;;;5051034;28;20029;-66
2024/01/24 02:20:22;;;;;;;3.42;2.90;;;;;;;;;;5049486;28;20033;-66
2024/01/24 02:22:47;;;;;;;2.58;2.47;;;;;;;;;;5050366;28;20024;-66
2024/01/24 02:25:12;;;;;;;4.73;3.30;;;;;;;;;;5049314;28;20466;-65
2024/01/24 02:27:38;;;;;;;3.03;2.83;;;;;;;;;;5050541;28;20031;-66
2024/01/24 02:30:04;;;;;;;2.95;2.70;;;;;;;;;;5048848;28;20033;-65
2024/01/24 02:32:30;;;;;;;3.50;3.20;;;;;;;;;;5051065;28;20036;-65
2024/01/24 02:34:55;;;;;;;3.30;3.10;;;;;;;;;;5049130;28;20032;-65
2024/01/24 02:37:20;;;;;;;6.90;3.37;;;;;;;;;;5050498;28;20361;-65
2024/01/24 02:39:46;;;;;;;3.10;2.90;;;;;;;;;;5049301;28;20483;-65
2024/01/24 02:42:12;;;;;;;2.83;2.70;;;;;;;;;;5050815;28;20122;-65
2024/01/24 02:44:37;;;;;;;3.53;2.90;;;;;;;;;;5047316;28;20684;-66
2024/01/24 02:47:02;;;;;;;3.10;2.90;;;;;;;;;;5050763;28;20416;-65
2024/01/24 02:49:27;;;;;;;2.58;2.38;;;;;;;;;;5049193;28;20132;-65
2024/01/24 02:51:52;;;;;;;2.87;2.67;;;;;;;;;;5049990;28;20025;-66
2024/01/24 02:54:18;;;;;;;2.83;2.63;;;;;;;;;;5049024;28;20038;-66
2024/01/24 02:56:44;;;;;;;2.47;2.27;;;;;;;;;;5050424;28;20699;-65
2024/01/24 02:59:10;;;;;;;2.20;2.10;;;;;;;;;;5048811;28;20483;-65
2024/01/24 03:01:35;;;;;;;2.10;2.00;;;;;;;;;;5050226;28;20031;-65
2024/01/24 03:04:01;;;;;;;1.90;1.80;;;;;;;;;;5049192;28;20032;-65
2024/01/24 03:06:26;;;;;;;2.10;2.00;;;;;;;;;;5050465;28;20413;-65
2024/01/24 03:08:56;;;;;;;1.67;1.57;;;;;;;;;;5048769;28;20049;-65
2024/01/24 03:11:21;;;;;;;2.70;1.95;;;;;;;;;;5050712;28;20100;-65
2024/01/24 03:13:47;;;;;;;1.88;1.77;;;;;;;;;;5048448;28;20037;-65
2024/01/24 03:16:12;;;;;;;1.87;1.77;;;;;;;;;;5050314;28;20033;-65
2024/01/24 03:18:37;;;;;;;2.05;1.95;;;;;;;;;;5048948;28;20419;-65
2024/01/24 03:21:05;;;;;;;1.70;1.63;;;;;;;;;;5050309;28;20025;-65
2024/01/24 03:23:30;;;;;;;2.00;1.90;;;;;;;;;;5048943;28;20095;-65
2024/01/24 03:25:56;;;;;;;1.93;1.83;;;;;;;;;;5050398;28;20423;-65
2024/01/24 03:28:21;;;;;;;2.15;2.05;;;;;;;;;;5048712;28;20966;-65
2024/01/24 03:30:46;;;;;;;2.53;2.33;;;;;;;;;;5049696;28;20066;-66
2024/01/24 03:33:11;;;;;;;2.50;2.38;;;;;;;;;;5050231;28;20488;-66
2024/01/24 03:35:36;;;;;;;2.33;2.23;;;;;;;;;;5048672;28;20048;-66
2024/01/24 03:38:02;;;;;;;5.13;2.63;;;;;;;;;;5049923;28;20040;-66
2024/01/24 03:40:27;;;;;;;3.60;2.17;;;;;;;;;;5049608;28;20037;-66
2024/01/24 03:42:52;;;;;;;2.73;2.47;;;;;;;;;;5053738;28;20017;-67
2024/01/24 03:45:18;;;;;;;3.70;2.43;;;;;;;;;;5051946;28;20542;-66
2024/01/24 03:47:44;;;;;;;2.70;2.43;;;;;;;;;;5053426;28;20028;-66
2024/01/24 03:50:10;;;;;;;4.60;2.67;;;;;;;;;;5052262;28;20452;-66
2024/01/24 03:52:35;;;;;;;3.35;1.85;;;;;;;;;;5052981;28;20021;-66
2024/01/24 03:55:00;;;;;;;5.03;2.30;;;;;;;;;;5052216;28;20069;-66
2024/01/24 03:57:25;;;;;;;3.55;3.25;;;;;;;;;;5053343;28;20021;-66
2024/01/24 03:59:51;;;;;;;2.70;2.50;;;;;;;;;;5051353;28;20087;-66
2024/01/24 04:02:17;;;;;;;4.40;2.10;;;;;;;;;;5053541;28;20021;-67
2024/01/24 04:04:42;;;;;;;3.83;2.88;;;;;;;;;;5051818;28;20033;-66
2024/01/24 04:07:07;;;;;;;2.63;1.90;;;;;;;;;;5053212;28;20373;-65
2024/01/24 04:09:32;;;;;;;5.70;2.10;;;;;;;;;;5051818;28;20032;-66
2024/01/24 04:11:57;;;;;;;3.33;1.93;;;;;;;;;;5053048;28;20453;-66
2024/01/24 04:14:23;;;;;;;5.82;2.38;;;;;;;;;;5051545;28;20509;-65
2024/01/24 04:16:48;;;;;;;12.43;4.43;;;;;;;;;;5052933;28;20021;-66
2024/01/24 04:19:13;;;;;;;6.37;3.10;;;;;;;;;;5051744;28;20072;-66
2024/01/24 04:21:42;;;;;;;5.28;2.65;;;;;;;;;;5052517;28;20442;-66
2024/01/24 04:24:07;;;;;;;11.30;2.35;;;;;;;;;;5051597;28;20060;-66
2024/01/24 04:26:33;;;;;;;9.95;3.20;;;;;;;;;;5052708;28;20506;-66
2024/01/24 04:28:58;;;;;;;11.20;3.73;;;;;;;;;;5050550;28;20037;-66
2024/01/24 04:31:23;;;;;;;15.40;4.67;;;;;;;;;;5052946;28;20429;-66
2024/01/24 04:33:48;;;;;;;8.43;2.37;;;;;;;;;;5051296;28;20455;-66
2024/01/24 04:36:13;;;;;;;8.10;3.93;;;;;;;;;;5052472;28;20520;-65
2024/01/24 04:38:39;;;;;;;12.87;4.37;;;;;;;;;;5051020;28;20041;-65
2024/01/24 04:41:04;;;;;;;7.57;3.05;;;;;;;;;;5052621;28;20424;-66
2024/01/24 04:43:29;;;;;;;21.00;5.10;;;;;;;;;;5050843;28;20059;-66
2024/01/24 04:45:54;;;;;;;9.70;3.77;;;;;;;;;;5052536;28;20487;-65
2024/01/24 04:48:19;;;;;;;19.37;3.40;;;;;;;;;;5051108;28;20444;-65
2024/01/24 04:50:44;;;;;;;11.80;4.07;;;;;;;;;;5051960;28;20021;-66
2024/01/24 04:53:10;;;;;;;10.10;3.93;;;;;;;;;;5051693;28;20055;-66
2024/01/24 04:55:35;;;;;;;8.33;3.63;;;;;;;;;;5050539;28;20451;-65
2024/01/24 04:58:00;;;;;;;19.35;6.10;;;;;;;;;;5051992;28;20424;-66
2024/01/24 05:00:26;;;;;;;13.90;5.17;;;;;;;;;;5050756;28;20535;-66
2024/01/24 05:02:51;;;;;;;20.92;4.50;;;;;;;;;;5052258;28;20070;-66
2024/01/24 05:05:16;;;;;;;20.97;5.57;;;;;;;;;;5050523;28;20492;-65
2024/01/24 05:07:41;;;;;;;15.27;4.67;;;;;;;;;;5052037;28;20423;-65
2024/01/24 05:10:07;;;;;;;14.03;5.13;;;;;;;;;;5050635;28;20539;-66
2024/01/24 05:12:32;;;;;;;25.55;7.90;;;;;;;;;;5051358;28;20508;-64
2024/01/24 05:14:57;;;;;;;21.13;8.07;;;;;;;;;;5050019;28;20045;-66
2024/01/24 05:17:22;;;;;;;20.40;5.53;;;;;;;;;;5051822;28;20599;-66
2024/01/24 05:19:48;;;;;;;14.27;4.45;;;;;;;;;;5049962;28;20047;-66
2024/01/24 05:22:13;;;;;;;28.45;7.45;;;;;;;;;;5051521;28;20088;-66
2024/01/24 05:24:38;;;;;;;26.25;7.15;;;;;;;;;;5049961;28;20036;-66
2024/01/24 05:27:04;;;;;;;23.70;7.40;;;;;;;;;;5051586;28;20016;-66
2024/01/24 05:29:29;;;;;;;17.25;5.07;;;;;;;;;;5049888;28;20526;-66
2024/01/24 05:31:54;;;;;;;21.73;6.80;;;;;;;;;;5051492;28;20361;-66
2024/01/24 05:34:20;;;;;;;23.47;8.33;;;;;;;;;;5049880;28;20451;-66
2024/01/24 05:36:45;;;;;;;22.85;6.65;;;;;;;;;;5051420;28;20431;-66
2024/01/24 05:39:10;;;;;;;32.67;9.33;;;;;;;;;;5050068;28;20527;-66
2024/01/24 05:41:35;;;;;;;30.83;9.82;;;;;;;;;;5051535;28;20447;-67
2024/01/24 05:44:01;;;;;;;19.67;5.97;;;;;;;;;;5049705;28;20033;-66
2024/01/24 05:46:26;;;;;;;25.48;7.40;;;;;;;;;;5051354;28;20432;-66
2024/01/24 05:48:51;;;;;;;17.70;7.53;;;;;;;;;;5049547;28;20029;-66
2024/01/24 05:51:16;;;;;;;30.53;10.00;;;;;;;;;;5066245;28;20097;-66
2024/01/24 05:53:42;;;;;;;19.53;6.97;;;;;;;;;;5069519;28;20486;-66
2024/01/24 05:56:07;;;;;;;26.98;9.70;;;;;;;;;;5071531;28;20501;-66
2024/01/24 05:58:33;;;;;;;33.22;7.90;;;;;;;;;;5069662;28;20028;-67
2024/01/24 06:00:58;;;;;;;24.08;8.52;;;;;;;;;;5071196;28;20477;-67
2024/01/24 06:03:23;;;;;;;31.27;7.87;;;;;;;;;;5069337;28;20027;-67
2024/01/24 06:05:49;;;;;;;25.03;7.77;;;;;;;;;;5070544;28;20035;-67
2024/01/24 06:08:14;;;;;;;36.63;10.07;;;;;;;;;;5070881;28;20077;-67
2024/01/24 06:10:40;;;;;;;32.38;9.48;;;;;;;;;;5069447;28;20024;-67
2024/01/24 06:13:05;;;;;;;46.00;13.43;;;;;;;;;;5070991;28;20024;-68
2024/01/24 06:15:30;;;;;;;27.37;8.97;;;;;;;;;;5069448;28;20145;-68
2024/01/24 06:17:55;;;;;;;27.47;8.70;;;;;;;;;;5070683;28;20023;-68
2024/01/24 06:20:20;;;;;;;38.00;9.13;;;;;;;;;;5069177;28;20041;-68
2024/01/24 06:22:46;;;;;;;27.53;9.13;;;;;;;;;;5070455;28;20794;-68
2024/01/24 06:25:12;;;;;;;26.50;9.35;;;;;;;;;;5069609;28;20545;-67
2024/01/24 06:27:39;;;;;;;38.28;10.35;;;;;;;;;;5070410;28;20025;-67
2024/01/24 06:30:05;;;;;;;40.03;11.23;;;;;;;;;;5069342;28;20057;-67
2024/01/24 06:32:30;;;;;;;32.47;9.43;;;;;;;;;;5071074;28;20082;-67
2024/01/24 06:34:55;;;;;;;55.30;11.43;;;;;;;;;;5068811;28;20403;-67
2024/01/24 06:37:21;;;;;;;34.33;10.27;;;;;;;;;;5070518;28;20020;-67
2024/01/24 06:39:46;;;;;;;43.00;10.10;;;;;;;;;;5069283;28;20037;-67
2024/01/24 06:42:11;;;;;;;43.55;10.73;;;;;;;;;;5070637;28;20487;-67
2024/01/24 06:44:36;;;;;;;26.80;7.90;;;;;;;;;;5068995;28;20444;-67
2024/01/24 06:47:01;;;;;;;29.80;9.77;;;;;;;;;;5070690;28;20031;-67
2024/01/24 06:49:26;;;;;;;45.60;12.10;;;;;;;;;;5068755;28;20451;-67
2024/01/24 06:51:52;;;;;;;40.83;11.00;;;;;;;;;;5070272;28;20021;-67
2024/01/24 06:54:17;;;;;;;35.80;9.77;;;;;;;;;;5069239;28;20119;-67
2024/01/24 06:56:43;;;;;;;37.88;11.00;;;;;;;;;;5070128;28;20507;-67
2024/01/24 06:59:09;;;;;;;47.15;11.63;;;;;;;;;;5069029;28;20029;-66
2024/01/24 07:01:34;;;;;;;46.33;13.65;;;;;;;;;;5070296;28;20008;-67
2024/01/24 07:03:59;;;;;;;37.07;9.27;;;;;;;;;;5068808;28;20052;-67
2024/01/24 07:06:24;;;;;;;33.53;10.10;;;;;;;;;;5070363;28;20882;-67
2024/01/24 07:08:49;;;;;;;38.83;13.03;;;;;;;;;;5068874;28;20032;-68
2024/01/24 07:11:15;;;;;;;55.70;15.13;;;;;;;;;;5070453;28;20017;-69
2024/01/24 07:13:40;;;;;;;36.13;12.93;;;;;;;;;;5069088;28;20451;-67
2024/01/24 07:16:07;;;;;;;44.80;12.25;;;;;;;;;;5072488;28;20442;-67
2024/01/24 07:18:32;;;;;;;48.17;12.07;;;;;;;;;;5072443;28;20024;-67
2024/01/24 07:20:58;;;;;;;48.33;13.23;;;;;;;;;;5074149;28;20074;-67
2024/01/24 07:23:24;;;;;;;39.75;10.43;;;;;;;;;;5072648;28;20024;-67
2024/01/24 07:25:49;;;;;;;53.63;12.88;;;;;;;;;;5073491;28;20052;-68
2024/01/24 07:28:14;;;;;;;39.00;10.68;;;;;;;;;;5073940;28;20020;-65
2024/01/24 07:30:40;;;;;;;33.33;11.77;;;;;;;;;;5072300;28;20029;-64
2024/01/24 07:33:05;;;;;;;36.33;10.38;;;;;;;;;;5066965;28;20450;-64
2024/01/24 07:35:31;;;;;;;49.35;14.32;;;;;;;;;;5052112;28;20033;-64
2024/01/24 07:37:56;;;;;;;35.63;12.40;;;;;;;;;;5053847;28;20043;-65
2024/01/24 07:40:21;;;;;;;37.75;9.07;;;;;;;;;;5052374;28;20064;-64
2024/01/24 07:42:47;;;;;;;55.70;14.13;;;;;;;;;;5053549;28;20051;-64
2024/01/24 07:45:12;;;;;;;37.88;9.40;;;;;;;;;;5065748;28;20515;-64
2024/01/24 07:47:37;;;;;;;55.50;19.85;;;;;;;;;;5073153;28;20021;-64
2024/01/24 07:50:03;;;;;;;41.17;10.93;;;;;;;;;;5071770;28;20068;-64
2024/01/24 07:52:28;;;;;;;35.15;11.10;;;;;;;;;;5073981;28;20455;-64
2024/01/24 07:54:53;;;;;;;32.23;9.10;;;;;;;;;;5071907;28;20039;-64
2024/01/24 07:57:18;;;;;;;44.10;11.88;;;;;;;;;;5073125;28;20403;-64
2024/01/24 07:59:44;;;;;;;44.63;11.40;;;;;;;;;;5071930;28;20395;-64
2024/01/24 08:02:09;;;;;;;58.63;11.93;;;;;;;;;;5073515;28;20030;-64
2024/01/24 08:04:34;;;;;;;40.45;9.60;;;;;;;;;;5071542;28;20466;-64
2024/01/24 08:07:00;;;;;;;52.95;12.05;;;;;;;;;;5073449;28;20100;-64
2024/01/24 08:09:25;;;;;;;49.22;15.07;;;;;;;;;;5072043;28;20066;-64
2024/01/24 08:11:50;;;;;;;36.63;10.77;;;;;;;;;;5060075;28;20021;-64
2024/01/24 08:14:16;;;;;;;47.50;12.13;;;;;;;;;;5052142;28;20041;-64
2024/01/24 08:16:57;;;;;;;27.90;9.35;;;;;;;;;;5052874;28;20473;-64
2024/01/24 08:19:23;;;;;;;44.95;11.00;;;;;;;;;;5051460;28;20060;-64
2024/01/24 08:21:49;;;;;;;50.63;10.60;;;;;;;;;;5052994;28;20044;-64
2024/01/24 08:24:14;;;;;;;53.13;12.57;;;;;;;;;;5051232;28;20500;-63
2024/01/24 08:26:39;;;;;;;29.83;11.50;;;;;;;;;;5051077;28;20487;-63
2024/01/24 08:29:04;;;;;;;49.00;13.23;;;;;;;;;;5051632;28;20086;-63
2024/01/24 08:31:30;;;;;;;48.15;10.70;;;;;;;;;;5053124;28;20968;-63
2024/01/24 08:33:55;;;;;;;59.57;12.63;;;;;;;;;;5050811;28;20415;-63
2024/01/24 08:36:20;;;;;;;42.07;10.97;;;;;;;;;;5052817;28;20029;-63
2024/01/24 08:38:45;;;;;;;54.58;14.88;;;;;;;;;;5050916;28;20041;-63
2024/01/24 08:41:10;;;;;;;37.43;12.57;;;;;;;;;;5052445;28;20024;-63
2024/01/24 08:43:36;;;;;;;48.58;11.30;;;;;;;;;;5051173;28;21011;-62
2024/01/24 08:46:01;;;;;;;46.87;17.13;;;;;;;;;;5052619;28;20014;-63
2024/01/24 08:48:27;;;;;;;44.42;12.88;;;;;;;;;;5051167;28;20407;-62
2024/01/24 08:50:53;;;;;;;41.63;15.30;;;;;;;;;;5052189;28;20468;-62
2024/01/24 08:53:18;;;;;;;45.97;14.18;;;;;;;;;;5051126;28;20428;-60
2024/01/24 08:55:44;;;;;;;46.00;14.93;;;;;;;;;;5051751;28;20062;-62
2024/01/24 08:58:09;;;;;;;42.13;13.27;;;;;;;;;;5052585;28;20486;-63
2024/01/24 09:00:34;;;;;;;54.22;14.40;;;;;;;;;;5050612;28;20037;-62
2024/01/24 09:02:59;;;;;;;43.53;12.43;;;;;;;;;;5051835;28;20021;-62
2024/01/24 09:05:25;;;;;;;42.13;11.77;;;;;;;;;;5050767;28;20454;-62
2024/01/24 09:07:50;;;;;;;53.03;12.40;;;;;;;;;;5052159;28;20419;-62
2024/01/24 09:10:16;;;;;;;64.63;11.43;;;;;;;;;;5050367;28;20439;-63
2024/01/24 09:12:41;;;;;;;37.42;12.30;;;;;;;;;;5051865;28;20017;-63
2024/01/24 09:15:06;;;;;;;46.07;12.27;;;;;;;;;;5050578;28;20565;-63
2024/01/24 09:17:33;;;;;;;57.40;14.57;;;;;;;;;;5051749;28;20020;-63
2024/01/24 09:19:59;;;;;;;52.95;16.70;;;;;;;;;;5047576;28;20409;-63
2024/01/24 09:22:24;;;;;;;45.65;10.50;;;;;;;;;;5051695;28;20028;-62
2024/01/24 09:24:49;;;;;;;47.65;11.80;;;;;;;;;;5049807;28;20033;-63
2024/01/24 09:27:15;;;;;;;40.70;11.25;;;;;;;;;;5051562;28;20017;-63
2024/01/24 09:29:40;;;;;;;23.45;9.38;;;;;;;;;;5048642;28;20488;-62
2024/01/24 09:32:05;;;;;;;43.47;14.75;;;;;;;;;;5050050;28;20024;-63
2024/01/24 09:34:31;;;;;;;41.70;12.82;;;;;;;;;;5050408;28;20029;-62
2024/01/24 09:36:56;;;;;;;38.10;13.80;;;;;;;;;;5051493;28;20465;-62
2024/01/24 09:39:21;;;;;;;44.65;12.32;;;;;;;;;;5049126;28;20475;-62
2024/01/24 09:41:49;;;;;;;37.67;9.93;;;;;;;;;;5051282;28;20013;-62
2024/01/24 09:44:15;;;;;;;38.05;11.90;;;;;;;;;;5050001;28;20040;-62
2024/01/24 09:46:41;;;;;;;49.95;11.07;;;;;;;;;;5051035;28;20025;-62
2024/01/24 09:49:07;;;;;;;40.70;10.83;;;;;;;;;;5049811;28;20051;-63
2024/01/24 09:51:33;;;;;;;54.47;12.70;;;;;;;;;;5051280;28;20467;-62
2024/01/24 09:54:01;;;;;;;47.33;14.80;;;;;;;;;;5049662;28;20491;-63
2024/01/24 09:56:27;;;;;;;53.22;13.68;;;;;;;;;;5049695;28;20024;-63
2024/01/24 09:58:52;;;;;;;48.95;13.75;;;;;;;;;;5049417;28;20037;-62
2024/01/24 10:01:18;;;;;;;31.83;11.53;;;;;;;;;;5050044;28;20094;-63
2024/01/24 10:03:44;;;;;;;46.33;13.98;;;;;;;;;;5048206;28;21003;-62
2024/01/24 10:06:10;;;;;;;38.05;11.88;;;;;;;;;;5050063;28;20172;-63
2024/01/24 10:08:35;;;;;;;34.80;10.32;;;;;;;;;;5047292;28;20385;-63
2024/01/24 10:11:01;;;;;;;50.17;14.15;;;;;;;;;;5050201;28;20017;-62
2024/01/24 10:13:26;;;;;;;48.28;12.98;;;;;;;;;;5048872;28;20376;-62
2024/01/24 10:15:52;;;;;;;37.72;12.55;;;;;;;;;;5049707;28;20017;-59
2024/01/24 10:18:19;;;;;;;38.40;12.00;;;;;;;;;;5049526;28;20484;-60
2024/01/24 10:20:46;;;;;;;45.45;12.90;;;;;;;;;;5049413;28;20086;-59
2024/01/24 10:23:11;;;;;;;36.50;10.73;;;;;;;;;;5050694;28;20029;-59
2024/01/24 10:25:38;;;;;;;29.70;8.67;;;;;;;;;;5049323;28;20055;-60
2024/01/24 10:28:11;;;;;;;31.45;10.65;;;;;;;;;;5050733;28;20419;-59
2024/01/24 10:30:36;;;;;;;32.83;8.75;;;;;;;;;;5048769;28;20052;-59
2024/01/24 10:33:02;;;;;;;35.70;10.17;;;;;;;;;;5050729;28;20041;-59
2024/01/24 10:35:29;;;;;;;43.40;12.77;;;;;;;;;;5049436;28;20041;-59
2024/01/24 10:37:55;;;;;;;34.78;9.80;;;;;;;;;;5050144;28;20044;-59
2024/01/24 10:40:21;;;;;;;43.38;12.40;;;;;;;;;;5049099;28;20033;-59
2024/01/24 10:42:48;;;;;;;46.00;12.25;;;;;;;;;;5050258;28;20078;-60
2024/01/24 10:45:15;;;;;;;42.10;11.05;;;;;;;;;;5046075;28;20115;-59
2024/01/24 10:47:41;;;;;;;40.05;9.90;;;;;;;;;;5049867;28;20017;-59
2024/01/24 10:50:09;;;;;;;34.50;12.43;;;;;;;;;;5049338;28;20090;-59
2024/01/24 10:52:34;;;;;;;31.33;11.52;;;;;;;;;;5054227;28;20016;-59
2024/01/24 10:55:04;;;;;;;41.73;10.77;;;;;;;;;;5053226;28;20029;-59
2024/01/24 10:57:35;;;;;;;30.35;8.68;;;;;;;;;;5054662;28;20435;-59
2024/01/24 11:00:02;;;;;;;32.83;11.13;;;;;;;;;;5053247;28;20400;-59
2024/01/24 11:02:27;;;;;;;44.47;11.82;;;;;;;;;;5054333;28;20071;-59
2024/01/24 11:04:53;;;;;;;34.10;10.37;;;;;;;;;;5052116;28;20040;-59
2024/01/24 11:07:22;;;;;;;34.45;12.75;;;;;;;;;;5054660;28;20530;-59
2024/01/24 11:09:53;;;;;;;34.85;9.32;;;;;;;;;;5052686;28;20184;-59
2024/01/24 11:12:19;;;;;;;35.13;9.25;;;;;;;;;;5054644;28;20013;-59
2024/01/24 11:14:45;;;;;;;32.75;9.60;;;;;;;;;;5052249;28;20457;-59
2024/01/24 11:17:10;;;;;;;31.00;9.10;;;;;;;;;;5052986;28;20488;-59
2024/01/24 11:19:35;;;;;;;34.25;10.40;;;;;;;;;;5052293;28;20099;-59
2024/01/24 11:22:06;;;;;;;50.97;11.87;;;;;;;;;;5054324;28;20021;-60
2024/01/24 11:24:40;;;;;;;46.22;12.27;;;;;;;;;;5051780;28;20044;-59
2024/01/24 11:27:24;;;;;;;41.00;10.70;;;;;;;;;;5050973;28;20480;-59
2024/01/24 11:29:50;;;;;;;30.35;10.57;;;;;;;;;;5051824;28;20082;-59
2024/01/24 11:32:50;;;;;;;29.85;8.13;;;;;;;;;;5054063;28;20025;-59
2024/01/24 11:35:30;;;;;;;35.63;8.65;;;;;;;;;;5040255;28;20033;-59
2024/01/24 11:37:58;;;;;;;28.27;8.02;;;;;;;;;;5052667;28;20032;-59
2024/01/24 11:40:23;;;;;;;50.43;10.17;;;;;;;;;;5052406;28;20043;-60
2024/01/24 11:42:58;;;;;;;22.77;7.18;;;;;;;;;;5053235;28;20020;-60
2024/01/24 11:45:24;;;;;;;37.92;10.25;;;;;;;;;;5052178;28;20584;-59
2024/01/24 11:47:50;;;;;;;35.90;8.38;;;;;;;;;;5053681;28;20147;-59
2024/01/24 11:50:15;;;;;;;36.03;9.25;;;;;;;;;;5052119;28;20116;-59
2024/01/24 11:52:41;;;;;;;39.75;12.15;;;;;;;;;;5053077;28;20017;-60
2024/01/24 11:55:06;;;;;;;32.22;11.43;;;;;;;;;;5052157;28;20033;-60
2024/01/24 11:57:32;;;;;;;21.98;8.75;;;;;;;;;;5053926;28;20028;-59
2024/01/24 11:59:57;;;;;;;26.33;8.55;;;;;;;;;;5051605;28;20095;-59
2024/01/24 12:02:23;;;;;;;29.57;8.83;;;;;;;;;;5052729;28;20582;-59
2024/01/24 12:04:52;;;;;;;29.60;7.60;;;;;;;;;;5051857;28;20487;-59
2024/01/24 12:07:17;;;;;;;35.30;10.27;;;;;;;;;;5053232;28;20522;-60
2024/01/24 12:09:43;;;;;;;33.08;9.77;;;;;;;;;;5051611;28;20041;-60
2024/01/24 12:12:12;;;;;;;39.10;11.98;;;;;;;;;;5053393;28;20468;-59
2024/01/24 12:14:38;;;;;;;42.20;10.52;;;;;;;;;;5051142;28;20036;-60
2024/01/24 12:17:09;;;;;;;30.90;8.65;;;;;;;;;;5053314;28;20021;-60
2024/01/24 12:19:35;;;;;;;33.13;10.15;;;;;;;;;;5051533;28;20463;-59
2024/01/24 12:22:01;;;;;;;33.13;9.43;;;;;;;;;;5052805;28;20024;-60
2024/01/24 12:24:26;;;;;;;37.70;9.07;;;;;;;;;;5051522;28;20048;-60
2024/01/24 12:26:51;;;;;;;32.40;9.95;;;;;;;;;;5052720;28;20419;-60
2024/01/24 12:29:16;;;;;;;31.05;12.07;;;;;;;;;;5051115;28;20033;-60
2024/01/24 12:31:45;;;;;;;35.35;9.63;;;;;;;;;;5053007;28;20028;-60
2024/01/24 12:34:10;;;;;;;24.73;6.97;;;;;;;;;;5051481;28;20091;-60
2024/01/24 12:36:35;;;;;;;27.57;8.83;;;;;;;;;;5052347;28;20029;-59
2024/01/24 12:39:03;;;;;;;29.83;7.50;;;;;;;;;;5051092;28;20475;-59
2024/01/24 12:41:28;;;;;;;29.00;9.90;;;;;;;;;;5052521;28;20439;-59
2024/01/24 12:43:54;;;;;;;31.77;9.53;;;;;;;;;;5050730;28;20043;-59
2024/01/24 12:46:20;;;;;;;28.95;8.30;;;;;;;;;;5049813;28;20447;-60
2024/01/24 12:48:47;;;;;;;24.33;8.00;;;;;;;;;;5050322;28;20037;-59
2024/01/24 12:51:12;;;;;;;29.95;10.10;;;;;;;;;;5051846;28;21022;-60
2024/01/24 12:53:37;;;;;;;37.63;8.07;;;;;;;;;;5050566;28;20102;-59
2024/01/24 12:56:03;;;;;;;37.03;10.75;;;;;;;;;;5052404;28;20151;-59
2024/01/24 12:58:28;;;;;;;28.15;7.65;;;;;;;;;;5050706;28;20098;-59
2024/01/24 13:00:53;;;;;;;38.50;9.23;;;;;;;;;;5051978;28;20028;-59
2024/01/24 13:03:18;;;;;;;29.40;9.33;;;;;;;;;;5052227;28;20966;-59
2024/01/24 13:05:44;;;;;;;36.73;10.80;;;;;;;;;;5049036;28;20033;-60
2024/01/24 13:08:09;;;;;;;22.53;7.50;;;;;;;;;;5052090;28;20037;-60
2024/01/24 13:10:36;;;;;;;31.00;8.93;;;;;;;;;;5050409;28;20865;-59
2024/01/24 13:13:02;;;;;;;33.38;9.48;;;;;;;;;;5051081;28;20545;-60
2024/01/24 13:15:27;;;;;;;22.00;7.43;;;;;;;;;;5050232;28;20036;-59
2024/01/24 13:17:52;;;;;;;27.47;7.90;;;;;;;;;;5051992;28;20025;-60
2024/01/24 13:20:20;;;;;;;26.73;7.30;;;;;;;;;;5050610;28;20057;-59
2024/01/24 13:22:45;;;;;;;25.60;8.80;;;;;;;;;;5051354;28;20498;-60
2024/01/24 13:25:10;;;;;;;25.53;9.60;;;;;;;;;;5050459;28;20137;-60
2024/01/24 13:27:36;;;;;;;24.90;6.83;;;;;;;;;;5051490;28;20960;-59
2024/01/24 13:30:01;;;;;;;24.60;7.57;;;;;;;;;;5049770;28;20451;-60
2024/01/24 13:32:26;;;;;;;31.20;10.27;;;;;;;;;;5051926;28;20111;-59
2024/01/24 13:34:52;;;;;;;30.43;9.13;;;;;;;;;;5050067;28;20467;-59
2024/01/24 13:37:17;;;;;;;20.83;6.72;;;;;;;;;;5049805;28;21012;-60
2024/01/24 13:39:43;;;;;;;27.23;7.68;;;;;;;;;;5050095;28;20113;-60
2024/01/24 13:42:08;;;;;;;31.70;11.18;;;;;;;;;;5051699;28;20064;-59
2024/01/24 13:44:33;;;;;;;25.90;7.73;;;;;;;;;;5049788;28;20045;-60
2024/01/24 13:46:58;;;;;;;29.30;7.93;;;;;;;;;;5051463;28;20427;-59
2024/01/24 13:49:23;;;;;;;32.83;8.83;;;;;;;;;;5049970;28;20455;-59
2024/01/24 13:51:49;;;;;;;26.73;7.03;;;;;;;;;;5051000;28;20570;-60
2024/01/24 13:54:14;;;;;;;24.75;8.23;;;;;;;;;;5050160;28;21021;-59
2024/01/24 13:56:39;;;;;;;26.90;10.93;;;;;;;;;;5051158;28;20096;-60
2024/01/24 13:59:04;;;;;;;24.63;7.47;;;;;;;;;;5049504;28;20025;-59
2024/01/24 14:01:29;;;;;;;31.20;10.43;;;;;;;;;;5050032;28;20516;-59
2024/01/24 14:03:55;;;;;;;24.70;7.63;;;;;;;;;;5049627;28;20475;-59
2024/01/24 14:06:20;;;;;;;43.05;10.93;;;;;;;;;;5050725;28;20032;-59
2024/01/24 14:08:45;;;;;;;21.27;7.43;;;;;;;;;;5049423;28;20064;-59
2024/01/24 14:11:11;;;;;;;22.83;9.43;;;;;;;;;;5051167;28;20017;-59
2024/01/24 14:13:36;;;;;;;34.15;10.40;;;;;;;;;;5049384;28;20040;-59
2024/01/24 14:16:02;;;;;;;26.65;8.63;;;;;;;;;;5051268;28;20017;-61
2024/01/24 14:18:27;;;;;;;24.20;9.40;;;;;;;;;;5049848;28;20021;-59
2024/01/24 14:20:52;;;;;;;23.37;7.63;;;;;;;;;;5050395;28;20259;-59